CheckWX is a tool to help pilots better visualize weather data.  It is not intended as a substitute for an official pre-flight weather briefing.

13:00:00 UTC

7N0 METAR
New Orleans Downtown Heliport
New Orleans, Louisiana, USA
Current

44 mins ago

K7N0 221216Z AUTO 17006KT 4SM BR OVC002 22/21 A3004 RMK AO2
Observed
Feb-22 @ 12:16 UTC
Wind
  • 170° at 6 KTS
Visibility
4 SM
Flight Rules
LIFR
Conditions
Mist
Cloud Levels
  • Overcast at 200' AGL
Temperature
22°C / 72°F
Dewpoint
21°C / 70°F
Humidity
94%
Altimeter
30.04" Hg
Pressure
1017.32 hPa
Previous

1 hour ago

K7N0 221156Z AUTO 16008KT 4SM BR OVC004 22/21 A3002 RMK AO2 SLP167 60000 70009 T02220211 10228 20222 55002
Observed
Feb-22 @ 11:56 UTC
Wind
  • 160° at 8 KTS
Visibility
4 SM
Flight Rules
LIFR
Conditions
Mist
Cloud Levels
  • Overcast at 400' AGL
Temperature
22°C / 72°F
Dewpoint
21°C / 70°F
Humidity
94%
Altimeter
30.02" Hg
Pressure
1016.7 hPa
Previous

2 hours ago

K7N0 221056Z AUTO 16008G14KT 9SM OVC004 22/21 A3002 RMK AO2 SLP164 T02220211
Observed
Feb-22 @ 10:56 UTC
Wind
  • 160° at 8 KTS
  • Gusting to KTS
Visibility
9 SM
Flight Rules
LIFR
Cloud Levels
  • Overcast at 400' AGL
Temperature
22°C / 72°F
Dewpoint
21°C / 70°F
Humidity
94%
Altimeter
30.02" Hg
Pressure
1016.4 hPa